GVNP

Praia International Airport

Airport
ICAO code
GVNP
IATA Code
RAI
Summary
ICAO Region
AFI
ICAO Territory
Location

Praia, Santiago Island, Ilhas de Sotavento

Serving
Praia
Elevation
230 ft
Coordinates
14° 56' 43" N , 23° 29' 11" W
Metar
Observation
GVNP 170300Z 01011KT 9999 FEW018 BKN100 26/21 Q1010 NOSIG
Station
PRAIA INTL
Date/Time
2022-08-17 03:00:00
Wind direction
10°
Wind speed
11 kts
Lowest cloud amount
few clouds
Temperature
26°C
Dew point
21°C
Humidity
74%
QNH
1010 hPa
Weather condition
n/a

Runways

Designator Length Width Surface Rops
3/21 0 0 UNK No/No
03L/21R 1283 30 ASP No/No
03R/21L 2096 45 ASP No/No

Airport map

Aerial View

SKYbrary Partners:

Safety knowledge contributed by: